EAGO2: Mountain Fork Riv, Eagletown,

Data processed at Sat Dec 09 2017 23:39


All information presented herein is the property of the government of the United States of America and may be revised or deleted at any time without prior notice.
Dissemination of this information without the expressed written consent of the Public Affairs Office, Tulsa District U.S. Army Corps of Engineers is strictly prohibited.
These data are gathered electronically and, as presented, have not undergone any form of quality control. These data are not guaranteed to be valid or correct.
Go to home page.
Go to station list.

Upstream stations:

Downstream station:
Previous Day
Next Day
Current Day
    
SHEF ID:       EAGO2     Mountain Fork near Eagletown, OK
STATION TYPE:  

               PRECIP     STAGE  RIV-FLOW  BAT-LOAD
                   in        ft       cfs      volt
              Ccp-Rev   Ccp-Rev   Ccp-Rev   Ccp-Rev
(US/Central)
12/07 00:00      ----      2.65      1017     12.33
12/07 01:00      ----      2.53       935      ----
12/07 02:00      ----      2.40       850     12.33
12/07 03:00      ----      2.28       774     12.25
12/07 04:00      ----      2.17       707     12.25
12/07 05:00      ----      2.07       648     12.25
12/07 06:00      ----      1.97       592     12.25
12/07 07:00      ----      1.88       542     12.25
12/07 08:00      ----      1.80       500     12.25
12/07 09:00      ----      1.66       430     12.33
12/07 10:00      ----      1.63       415     12.33
12/07 11:00      ----      1.58       391     12.41
12/07 12:00      ----      1.47       342     12.97
12/07 13:00      ----      1.46       338     12.73
12/07 14:00      ----      1.40       313     12.65
12/07 15:00      ----      1.36       296     12.73
12/07 16:00      ----      1.28       265     12.89
12/07 17:00      ----      1.28       265     12.65
12/07 18:00      ----      1.19       231     12.57
12/07 19:00      ----      1.18       228     12.49
12/07 20:00      ----      1.35       292     12.49
12/07 21:00      ----      2.46       889     12.41
12/07 22:00      ----      3.71      1856      ----
12/07 23:00      ----      4.20      2311     12.41